Time;durP1;ratioP1;P1;durP2;ratioP2;P2;SDS_P1;SDS_P2;PMS_P1;PMS_P2;Temp;Humidity;BMP_temperature;BMP_pressure;BME280_temperature;BME280_humidity;BME280_pressure;Samples;Min_cycle;Max_cycle;Signal;HPM_P1;HPM_P2
2023/03/29 00:02:18;;;;;;;1.05;0.50;;;22.00;30.40;;;;;;5076616;28;20076;-50
2023/03/29 00:04:45;;;;;;;0.50;0.50;;;22.00;30.40;;;;;;5084205;28;20411;-53
2023/03/29 00:07:13;;;;;;;1.17;0.90;;;21.90;30.30;;;;;;5080344;28;20078;-54
2023/03/29 00:09:41;;;;;;;0.77;0.70;;;21.90;30.30;;;;;;5073736;28;20143;-54
2023/03/29 00:12:09;;;;;;;0.70;0.60;;;21.90;30.40;;;;;;5072574;28;20443;-52
2023/03/29 00:14:37;;;;;;;1.33;0.63;;;21.90;30.40;;;;;;5081273;28;20143;-55
2023/03/29 00:17:04;;;;;;;0.55;0.55;;;21.90;30.40;;;;;;5070486;28;20052;-53
2023/03/29 00:19:34;;;;;;;0.80;0.68;;;21.90;30.90;;;;;;5073644;28;20458;-54
2023/03/29 00:22:05;;;;;;;0.63;0.63;;;21.90;30.40;;;;;;5088361;28;20044;-55
2023/03/29 00:24:32;;;;;;;;;;;21.90;30.40;;;;;;5074751;28;20416;-56
2023/03/29 00:26:59;;;;;;;1.30;0.63;;;21.90;30.40;;;;;;5070322;28;20007;-54
2023/03/29 00:29:26;;;;;;;0.60;0.60;;;21.90;30.40;;;;;;5067610;28;20147;-52
2023/03/29 00:31:54;;;;;;;0.77;0.77;;;21.90;30.40;;;;;;5085066;28;20051;-54
2023/03/29 00:34:23;;;;;;;0.85;0.60;;;21.90;30.40;;;;;;5079327;28;20052;-53
2023/03/29 00:36:51;;;;;;;0.75;0.68;;;21.90;30.40;;;;;;5077325;28;20134;-53
2023/03/29 00:39:20;;;;;;;1.02;0.82;;;21.90;30.50;;;;;;5073664;28;20048;-53
2023/03/29 00:41:48;;;;;;;1.05;0.68;;;21.90;30.50;;;;;;5076848;28;20044;-52
2023/03/29 00:44:55;;;;;;;0.90;0.70;;;21.90;30.50;;;;;;5077765;28;20040;-54
2023/03/29 00:47:44;;;;;;;1.20;0.90;;;21.90;30.50;;;;;;5075086;28;20399;-49
2023/03/29 00:50:21;;;;;;;0.77;0.77;;;21.90;30.40;;;;;;5075334;28;20041;-52
2023/03/29 00:52:55;;;;;;;0.80;0.73;;;21.90;30.50;;;;;;5075132;28;20055;-56
2023/03/29 00:55:26;;;;;;;0.70;0.70;;;21.90;30.50;;;;;;5077921;28;20048;-54
2023/03/29 00:57:56;;;;;;;0.85;0.85;;;21.90;30.50;;;;;;5077836;28;20484;-52
2023/03/29 01:00:30;;;;;;;1.35;0.98;;;21.90;30.50;;;;;;5072664;28;20053;-50
2023/03/29 01:02:58;;;;;;;0.65;0.65;;;21.90;30.40;;;;;;5070911;28;20064;-52
2023/03/29 01:05:36;;;;;;;0.88;0.77;;;21.90;30.40;;;;;;5067675;28;20053;-52
2023/03/29 01:08:24;;;;;;;1.45;0.85;;;21.90;30.40;;;;;;5068459;28;20052;-49
2023/03/29 01:11:03;;;;;;;0.85;0.85;;;21.90;30.40;;;;;;5083020;28;20063;-56
2023/03/29 01:13:39;;;;;;;0.95;0.85;;;21.90;30.40;;;;;;5086851;28;20039;-52
2023/03/29 01:16:09;;;;;;;1.25;0.90;;;21.80;30.40;;;;;;5072300;28;20508;-53
2023/03/29 01:18:37;;;;;;;1.10;0.90;;;21.80;30.40;;;;;;5084900;28;20051;-53
2023/03/29 01:21:14;;;;;;;1.30;0.70;;;21.80;30.40;;;;;;5078526;28;20052;-49
2023/03/29 01:24:05;;;;;;;0.80;0.80;;;21.80;30.40;;;;;;5081559;28;20055;-55
2023/03/29 01:26:52;;;;;;;0.95;0.88;;;21.80;30.40;;;;;;5076879;28;20048;-53
2023/03/29 01:29:44;;;;;;;1.10;0.90;;;21.80;30.40;;;;;;5082752;28;20305;-50
2023/03/29 01:32:23;;;;;;;0.98;0.80;;;21.80;30.40;;;;;;5077485;28;20060;-51
2023/03/29 01:34:59;;;;;;;1.67;1.30;;;21.80;30.40;;;;;;5075331;28;20506;-49
2023/03/29 01:37:42;;;;;;;1.27;1.00;;;21.80;30.40;;;;;;5077946;28;20051;-52
2023/03/29 01:40:10;;;;;;;1.02;0.90;;;21.80;30.50;;;;;;5085280;28;20060;-50
2023/03/29 01:43:03;;;;;;;1.17;1.05;;;21.80;30.40;;;;;;5082829;28;20052;-52
2023/03/29 01:45:45;;;;;;;1.08;0.88;;;21.80;30.50;;;;;;5070409;28;20063;-50
2023/03/29 01:48:31;;;;;;;0.80;0.77;;;21.70;30.40;;;;;;5078500;28;20447;-50
2023/03/29 01:51:13;;;;;;;1.00;1.00;;;21.70;30.40;;;;;;5071517;28;20067;-50
2023/03/29 01:54:06;;;;;;;1.20;0.80;;;21.70;30.40;;;;;;5073541;28;20046;-49
2023/03/29 01:56:40;;;;;;;0.90;0.63;;;21.70;30.40;;;;;;5081644;28;20780;-49
2023/03/29 01:59:11;;;;;;;1.90;0.95;;;21.70;30.50;;;;;;5074087;28;20488;-54
2023/03/29 02:01:47;;;;;;;1.10;1.00;;;21.70;30.40;;;;;;5083381;28;20048;-51
2023/03/29 02:04:21;;;;;;;1.20;0.88;;;21.70;30.50;;;;;;5075291;28;20557;-52
2023/03/29 02:06:53;;;;;;;3.35;1.02;;;21.70;30.50;;;;;;5084069;28;20047;-54
2023/03/29 02:09:21;;;;;;;1.85;0.93;;;21.70;30.50;;;;;;5079218;28;20087;-53
2023/03/29 02:11:50;;;;;;;0.80;0.80;;;21.70;30.50;;;;;;5076061;28;20048;-55
2023/03/29 02:14:17;;;;;;;0.80;0.80;;;21.70;30.50;;;;;;5077341;28;20052;-52
2023/03/29 02:16:45;;;;;;;2.38;1.15;;;21.70;30.50;;;;;;5073744;28;20531;-51
2023/03/29 02:19:14;;;;;;;0.65;0.65;;;21.70;30.50;;;;;;5076199;28;20127;-49
2023/03/29 02:21:52;;;;;;;1.30;0.90;;;21.70;30.50;;;;;;5085111;28;20059;-56
2023/03/29 02:24:21;;;;;;;0.98;0.77;;;21.70;30.50;;;;;;5090289;28;20135;-51
2023/03/29 02:26:48;;;;;;;1.00;0.90;;;21.70;30.50;;;;;;5082718;28;20058;-52
2023/03/29 02:29:16;;;;;;;1.05;0.98;;;21.60;30.50;;;;;;5080428;28;20052;-50
2023/03/29 02:32:06;;;;;;;0.85;0.77;;;21.70;30.50;;;;;;5082619;28;20044;-53
2023/03/29 02:34:40;;;;;;;1.63;0.85;;;21.70;30.60;;;;;;5078009;28;20051;-53
2023/03/29 02:37:12;;;;;;;1.85;1.52;;;21.70;30.60;;;;;;5080575;28;20060;-51
2023/03/29 02:39:40;;;;;;;0.88;0.85;;;21.70;30.60;;;;;;5070006;28;20535;-53
2023/03/29 02:42:08;;;;;;;0.98;0.73;;;21.70;30.50;;;;;;5079770;28;20890;-51
2023/03/29 02:44:38;;;;;;;1.23;0.95;;;21.70;30.50;;;;;;5079258;28;20057;-55
2023/03/29 02:47:15;;;;;;;1.08;0.70;;;21.70;30.50;;;;;;5082987;28;20048;-54
2023/03/29 02:49:43;;;;;;;0.93;0.90;;;21.70;30.50;;;;;;5076722;28;20071;-54
2023/03/29 02:52:15;;;;;;;1.75;1.10;;;21.70;30.50;;;;;;5077382;28;20551;-49
2023/03/29 02:54:46;;;;;;;0.80;0.80;;;21.70;30.50;;;;;;5080984;28;20060;-50
2023/03/29 02:57:13;;;;;;;0.90;0.90;;;21.70;30.50;;;;;;5082237;28;20056;-51
2023/03/29 02:59:42;;;;;;;0.70;0.70;;;21.70;30.50;;;;;;5083200;28;20060;-50
2023/03/29 03:02:12;;;;;;;1.90;0.80;;;21.70;30.40;;;;;;5087309;28;20151;-51
2023/03/29 03:04:40;;;;;;;0.93;0.82;;;21.70;30.40;;;;;;5083528;28;20315;-50
2023/03/29 03:07:07;;;;;;;0.65;0.65;;;21.70;30.40;;;;;;5089506;28;20048;-49
2023/03/29 03:09:34;;;;;;;0.80;0.75;;;21.70;30.40;;;;;;5079120;28;20413;-50
2023/03/29 03:12:01;;;;;;;1.38;0.85;;;21.70;30.40;;;;;;5075642;28;20040;-53
2023/03/29 03:14:28;;;;;;;1.15;1.00;;;21.70;30.40;;;;;;5089589;28;20514;-50
2023/03/29 03:16:56;;;;;;;0.73;0.73;;;21.70;30.40;;;;;;5082364;28;20476;-51
2023/03/29 03:19:23;;;;;;;0.85;0.73;;;21.70;30.40;;;;;;5073712;28;20055;-51
2023/03/29 03:21:50;;;;;;;0.90;0.70;;;21.60;30.40;;;;;;5086788;28;20059;-53
2023/03/29 03:24:17;;;;;;;1.15;0.80;;;21.60;30.40;;;;;;5079471;28;20056;-49
2023/03/29 03:26:45;;;;;;;0.82;0.82;;;21.60;30.40;;;;;;5081922;28;20052;-52
2023/03/29 03:29:14;;;;;;;1.80;0.88;;;21.60;30.50;;;;;;5087883;28;20052;-50
2023/03/29 03:31:41;;;;;;;1.20;0.75;;;21.60;30.40;;;;;;5083954;28;20044;-53
2023/03/29 03:34:09;;;;;;;0.57;0.57;;;21.60;30.40;;;;;;5077754;28;20057;-51
2023/03/29 03:36:36;;;;;;;1.33;1.00;;;21.60;30.50;;;;;;5070084;28;20548;-53
2023/03/29 03:39:05;;;;;;;1.25;0.93;;;21.60;30.50;;;;;;5075348;28;20048;-52
2023/03/29 03:41:34;;;;;;;0.77;0.70;;;21.60;30.50;;;;;;5078010;28;20053;-55
2023/03/29 03:44:01;;;;;;;1.13;0.73;;;21.60;30.50;;;;;;5079370;28;20056;-53
2023/03/29 03:46:28;;;;;;;1.00;0.85;;;21.60;30.50;;;;;;5068785;28;20052;-55
2023/03/29 03:48:56;;;;;;;1.15;1.00;;;21.60;30.50;;;;;;5083841;28;20480;-50
2023/03/29 03:51:23;;;;;;;0.70;0.70;;;21.60;30.50;;;;;;5084629;28;20047;-55
2023/03/29 03:53:50;;;;;;;0.57;0.52;;;21.60;30.50;;;;;;5070506;28;20047;-51
2023/03/29 03:56:19;;;;;;;0.63;0.63;;;21.60;30.50;;;;;;5068459;28;20052;-57
2023/03/29 03:58:46;;;;;;;0.77;0.77;;;21.60;30.50;;;;;;5071276;28;20051;-49
2023/03/29 04:01:13;;;;;;;1.33;0.82;;;21.60;30.50;;;;;;5076193;28;20048;-49
2023/03/29 04:03:40;;;;;;;0.60;0.60;;;21.50;30.40;;;;;;5068179;28;20048;-50
2023/03/29 04:06:08;;;;;;;0.90;0.82;;;21.60;30.50;;;;;;5071332;28;20070;-50
2023/03/29 04:08:35;;;;;;;2.17;0.80;;;21.50;31.00;;;;;;5084613;28;20044;-54
2023/03/29 04:11:03;;;;;;;0.73;0.73;;;21.60;30.50;;;;;;5073296;28;20067;-52
2023/03/29 04:13:30;;;;;;;1.13;0.70;;;21.50;30.40;;;;;;5075321;28;20595;-50
2023/03/29 04:15:57;;;;;;;0.85;0.85;;;21.50;30.50;;;;;;5076139;28;20049;-51
2023/03/29 04:18:27;;;;;;;1.38;0.90;;;21.50;30.50;;;;;;5080304;28;20098;-54
2023/03/29 04:20:54;;;;;;;1.25;0.90;;;21.50;30.40;;;;;;5077395;28;20467;-55
2023/03/29 04:23:22;;;;;;;0.50;0.50;;;21.50;30.50;;;;;;5071361;28;20048;-54
2023/03/29 04:25:52;;;;;;;1.40;0.80;;;21.50;30.50;;;;;;5077274;28;20053;-50
2023/03/29 04:28:20;;;;;;;0.80;0.65;;;21.50;30.50;;;;;;5078337;28;20056;-54
2023/03/29 04:30:47;;;;;;;0.80;0.80;;;21.50;30.50;;;;;;5067971;28;20044;-50
2023/03/29 04:33:15;;;;;;;0.60;0.60;;;21.50;30.50;;;;;;5082050;28;20040;-53
2023/03/29 04:35:42;;;;;;;1.20;0.73;;;21.60;30.50;;;;;;5084022;28;20056;-55
2023/03/29 04:38:10;;;;;;;2.17;1.05;;;21.60;30.40;;;;;;5071281;28;20568;-52
2023/03/29 04:40:37;;;;;;;1.45;1.13;;;21.50;30.20;;;;;;5074353;28;20451;-54
2023/03/29 04:43:05;;;;;;;2.08;1.25;;;21.50;30.20;;;;;;5070813;28;20048;-55
2023/03/29 04:45:32;;;;;;;1.38;1.27;;;21.50;30.10;;;;;;5080703;28;20049;-50
2023/03/29 04:47:59;;;;;;;1.33;1.20;;;21.50;30.10;;;;;;5081465;28;20876;-51
2023/03/29 04:50:27;;;;;;;2.45;1.50;;;21.50;30.10;;;;;;5079418;28;20128;-56
2023/03/29 04:52:54;;;;;;;2.13;1.48;;;21.50;30.10;;;;;;5072577;28;20123;-55
2023/03/29 04:55:21;;;;;;;2.17;1.70;;;21.50;30.10;;;;;;5073268;28;20058;-55
2023/03/29 04:57:48;;;;;;;1.70;1.20;;;21.50;30.10;;;;;;5080182;28;20056;-53
2023/03/29 05:00:16;;;;;;;2.63;1.80;;;21.50;30.20;;;;;;5075826;28;20404;-51
2023/03/29 05:02:43;;;;;;;2.28;1.67;;;21.50;30.10;;;;;;5075683;28;20051;-53
2023/03/29 05:05:12;;;;;;;2.40;1.95;;;21.50;30.10;;;;;;5070662;28;20061;-51
2023/03/29 05:07:39;;;;;;;3.88;1.77;;;21.60;30.10;;;;;;5081703;28;20135;-53
2023/03/29 05:10:08;;;;;;;2.38;2.05;;;21.60;30.10;;;;;;5075525;28;20479;-54
2023/03/29 05:12:35;;;;;;;4.03;1.90;;;21.60;30.00;;;;;;5070076;28;20051;-54
2023/03/29 05:15:07;;;;;;;2.78;2.13;;;21.70;30.00;;;;;;5069576;28;20045;-52
2023/03/29 05:17:34;;;;;;;2.92;2.10;;;21.70;30.00;;;;;;5072962;28;20063;-48
2023/03/29 05:20:08;;;;;;;3.55;2.33;;;21.80;30.10;;;;;;5073310;28;20052;-51
2023/03/29 05:22:35;;;;;;;4.05;2.30;;;21.80;30.10;;;;;;5070739;28;20680;-49
2023/03/29 05:25:03;;;;;;;6.10;2.65;;;21.80;30.60;;;;;;5077380;28;20054;-51
2023/03/29 05:27:30;;;;;;;3.65;2.42;;;21.90;30.00;;;;;;5069125;28;20166;-49
2023/03/29 05:29:57;;;;;;;10.10;2.67;;;21.90;30.00;;;;;;5074424;28;20055;-53
2023/03/29 05:32:24;;;;;;;4.82;3.30;;;22.00;30.00;;;;;;5072529;28;20047;-49
2023/03/29 05:34:51;;;;;;;7.32;3.50;;;22.00;30.00;;;;;;5074719;28;20078;-56
2023/03/29 05:37:19;;;;;;;5.57;3.20;;;22.00;30.30;;;;;;5072305;28;20064;-56
2023/03/29 05:39:48;;;;;;;5.07;3.25;;;22.10;29.90;;;;;;5066180;28;20064;-60
2023/03/29 05:42:18;;;;;;;4.55;2.95;;;22.20;29.90;;;;;;5067936;28;20055;-57
2023/03/29 05:44:45;;;;;;;5.07;3.20;;;22.20;29.90;;;;;;5069535;28;20058;-58
2023/03/29 05:47:12;;;;;;;5.10;3.25;;;22.20;29.80;;;;;;5067324;28;20048;-56
2023/03/29 05:49:39;;;;;;;6.53;3.83;;;22.30;29.80;;;;;;5079781;28;20155;-58
2023/03/29 05:52:07;;;;;;;6.38;3.75;;;22.30;29.80;;;;;;5077596;28;20054;-59
2023/03/29 05:54:34;;;;;;;6.32;3.17;;;22.30;29.80;;;;;;5072922;28;20050;-58
2023/03/29 05:57:01;;;;;;;5.60;4.05;;;22.40;29.80;;;;;;5073433;28;20048;-59
2023/03/29 05:59:29;;;;;;;8.35;4.53;;;22.40;29.80;;;;;;5074647;28;20492;-59
2023/03/29 06:01:56;;;;;;;7.40;4.28;;;22.40;29.80;;;;;;5073408;28;20058;-58
2023/03/29 06:04:24;;;;;;;6.82;4.80;;;22.50;29.90;;;;;;5073449;28;20569;-58
2023/03/29 06:06:54;;;;;;;11.55;5.65;;;22.50;29.80;;;;;;5076843;28;20051;-59
2023/03/29 06:09:21;;;;;;;10.90;4.65;;;22.50;29.80;;;;;;5075781;28;20476;-59
2023/03/29 06:11:51;;;;;;;;;;;22.60;29.80;;;;;;5073039;28;20143;-59
2023/03/29 06:14:19;;;;;;;11.55;5.03;;;22.70;29.90;;;;;;5068186;28;19951;-59
2023/03/29 06:16:47;;;;;;;7.55;4.63;;;22.70;29.90;;;;;;5076409;28;20089;-58
2023/03/29 06:19:14;;;;;;;11.52;6.10;;;22.80;29.80;;;;;;5074719;28;20055;-60
2023/03/29 06:21:41;;;;;;;9.80;5.90;;;22.90;29.90;;;;;;5072297;28;21212;-60
2023/03/29 06:24:08;;;;;;;14.07;5.72;;;22.90;29.90;;;;;;5072371;28;20059;-59
2023/03/29 06:26:36;;;;;;;11.00;5.63;;;22.90;29.80;;;;;;5069806;28;20404;-60
2023/03/29 06:29:04;;;;;;;18.98;6.65;;;23.10;29.80;;;;;;5076216;28;20166;-59
2023/03/29 06:31:31;;;;;;;11.18;6.47;;;23.10;29.80;;;;;;5074614;28;20058;-59
2023/03/29 06:33:58;;;;;;;11.95;6.57;;;23.20;29.80;;;;;;5074975;28;20045;-61
2023/03/29 06:36:25;;;;;;;9.52;6.18;;;23.20;29.70;;;;;;5073170;28;20062;-61
2023/03/29 06:38:53;;;;;;;11.98;5.57;;;23.30;29.60;;;;;;5075339;28;21306;-59
2023/03/29 06:41:20;;;;;;;9.48;5.85;;;23.30;29.50;;;;;;5078080;28;20074;-61
2023/03/29 06:43:47;;;;;;;8.10;5.80;;;23.40;29.40;;;;;;5075935;28;20089;-61
2023/03/29 06:46:15;;;;;;;11.45;5.68;;;23.40;29.40;;;;;;5080186;28;21548;-59
2023/03/29 06:48:43;;;;;;;9.95;5.68;;;23.50;29.70;;;;;;5078651;28;20051;-61
2023/03/29 06:51:11;;;;;;;8.23;5.50;;;23.60;29.80;;;;;;5079421;28;20056;-61
2023/03/29 06:53:39;;;;;;;10.90;5.70;;;23.60;29.80;;;;;;5078047;28;20408;-62
2023/03/29 06:56:07;;;;;;;8.20;5.95;;;23.70;29.80;;;;;;5077589;28;20056;-61
2023/03/29 06:58:36;;;;;;;8.68;5.28;;;23.70;29.80;;;;;;5077662;28;20416;-59
2023/03/29 07:01:03;;;;;;;9.07;6.00;;;23.80;29.90;;;;;;5075248;28;20669;-60
2023/03/29 07:03:34;;;;;;;11.07;6.03;;;23.90;29.80;;;;;;5074159;28;20557;-59
2023/03/29 07:06:08;;;;;;;8.73;5.40;;;23.90;29.70;;;;;;5076722;28;20139;-62
2023/03/29 07:08:42;;;;;;;8.27;5.55;;;24.00;29.70;;;;;;5078153;28;20109;-60
2023/03/29 07:11:11;;;;;;;8.95;6.13;;;24.10;29.60;;;;;;5080502;28;20058;-60
2023/03/29 07:13:41;;;;;;;10.27;5.97;;;24.10;29.40;;;;;;5075713;28;20060;-61
2023/03/29 07:16:11;;;;;;;12.65;5.70;;;24.20;29.40;;;;;;5074364;28;20055;-61
2023/03/29 07:18:40;;;;;;;9.32;5.47;;;24.30;29.40;;;;;;5075181;28;20082;-61
2023/03/29 07:21:09;;;;;;;10.45;6.13;;;24.30;29.30;;;;;;5073524;28;20051;-59
2023/03/29 07:23:36;;;;;;;10.20;5.40;;;24.40;29.30;;;;;;5073898;28;20608;-61
2023/03/29 07:26:06;;;;;;;8.45;4.75;;;24.50;29.30;;;;;;5076408;28;20838;-61
2023/03/29 07:28:36;;;;;;;8.98;4.88;;;24.50;29.30;;;;;;5078308;28;20150;-61
2023/03/29 07:31:05;;;;;;;8.15;4.80;;;24.50;29.30;;;;;;5078749;28;20066;-62
2023/03/29 07:33:33;;;;;;;7.35;4.60;;;24.60;29.30;;;;;;5073351;28;20800;-59
2023/03/29 07:36:02;;;;;;;6.82;4.72;;;24.70;29.40;;;;;;5079471;28;20052;-61
2023/03/29 07:38:30;;;;;;;8.73;4.65;;;24.70;29.30;;;;;;5073795;28;20138;-61
2023/03/29 07:40:58;;;;;;;7.55;4.30;;;24.80;29.10;;;;;;5073677;28;20062;-61
2023/03/29 07:43:25;;;;;;;6.70;4.40;;;24.90;29.20;;;;;;5074880;28;20059;-61
2023/03/29 07:45:54;;;;;;;7.00;4.05;;;24.90;29.00;;;;;;5076146;28;20415;-61
2023/03/29 07:48:21;;;;;;;7.68;3.88;;;25.00;28.90;;;;;;5078949;28;20052;-61
2023/03/29 07:50:48;;;;;;;5.85;4.47;;;25.00;28.80;;;;;;5074538;28;20048;-61
2023/03/29 07:53:15;;;;;;;4.55;3.47;;;25.00;28.60;;;;;;5074533;28;20071;-61
2023/03/29 07:55:46;;;;;;;6.15;4.22;;;25.10;28.50;;;;;;5076336;28;21450;-61
2023/03/29 07:58:14;;;;;;;6.35;3.90;;;25.10;28.30;;;;;;5074117;28;20058;-61
2023/03/29 08:00:44;;;;;;;4.47;3.60;;;25.10;28.40;;;;;;5078862;28;20050;-61
2023/03/29 08:03:12;;;;;;;7.10;4.13;;;25.20;28.30;;;;;;5072863;28;20055;-60
2023/03/29 08:05:39;;;;;;;5.32;3.60;;;25.30;28.30;;;;;;5075513;28;20056;-61
2023/03/29 08:08:08;;;;;;;5.32;3.65;;;25.30;28.20;;;;;;5073938;28;20056;-60
2023/03/29 08:10:38;;;;;;;3.58;3.25;;;25.30;28.10;;;;;;5073574;28;20507;-59
2023/03/29 08:13:07;;;;;;;6.00;3.90;;;25.40;28.10;;;;;;5073006;28;20044;-59
2023/03/29 08:15:37;;;;;;;6.13;3.58;;;25.40;28.10;;;;;;5073563;28;20147;-60
2023/03/29 08:18:06;;;;;;;4.22;3.45;;;25.40;27.90;;;;;;5070139;28;20052;-60
2023/03/29 08:20:33;;;;;;;4.53;3.35;;;25.50;27.80;;;;;;5076348;28;20047;-59
2023/03/29 08:23:00;;;;;;;9.93;3.35;;;25.50;28.00;;;;;;5076397;28;20043;-62
2023/03/29 08:25:28;;;;;;;4.47;3.13;;;25.60;27.90;;;;;;5075500;28;20084;-59
2023/03/29 08:27:55;;;;;;;3.90;3.22;;;25.60;27.80;;;;;;5072003;28;20067;-60
2023/03/29 08:30:24;;;;;;;4.25;2.72;;;25.70;27.80;;;;;;5074786;28;20054;-59
2023/03/29 08:32:52;;;;;;;5.10;3.42;;;25.70;27.80;;;;;;5074374;28;20075;-61
2023/03/29 08:35:21;;;;;;;4.03;2.90;;;25.70;27.60;;;;;;5076168;28;20101;-56
2023/03/29 08:37:48;;;;;;;4.60;3.20;;;25.70;27.70;;;;;;5074631;28;20068;-59
2023/03/29 08:40:20;;;;;;;3.38;2.50;;;25.80;27.60;;;;;;5073782;28;20481;-57
2023/03/29 08:43:27;;;;;;;4.20;2.92;;;25.80;27.70;;;;;;5068897;28;20052;-59
2023/03/29 08:46:26;;;;;;;5.50;2.72;;;25.80;27.60;;;;;;5072498;28;20056;-58
2023/03/29 08:49:05;;;;;;;3.92;2.30;;;25.80;27.30;;;;;;5073760;28;20500;-57
2023/03/29 08:51:41;;;;;;;3.95;2.83;;;25.80;27.40;;;;;;5072836;28;20059;-56
2023/03/29 08:54:24;;;;;;;4.45;2.35;;;25.90;27.50;;;;;;5075500;28;20501;-59
2023/03/29 08:56:55;;;;;;;4.13;2.38;;;25.90;27.40;;;;;;5073878;28;20048;-60
2023/03/29 08:59:29;;;;;;;3.58;2.30;;;25.90;27.50;;;;;;5075365;28;20484;-56
2023/03/29 09:02:01;;;;;;;4.20;2.35;;;25.90;27.70;;;;;;5074251;28;20569;-56
2023/03/29 09:04:31;;;;;;;3.42;2.08;;;25.90;27.30;;;;;;5075767;28;20063;-61
2023/03/29 09:07:01;;;;;;;3.65;2.65;;;26.00;27.20;;;;;;5068296;28;20052;-58
2023/03/29 09:09:32;;;;;;;3.15;2.30;;;26.00;27.50;;;;;;5070257;28;20052;-60
2023/03/29 09:12:33;;;;;;;4.40;2.03;;;26.00;27.40;;;;;;5073179;28;20048;-58
2023/03/29 09:15:14;;;;;;;2.38;1.83;;;26.00;27.10;;;;;;5073732;28;20415;-57
2023/03/29 09:18:12;;;;;;;4.40;1.92;;;26.00;27.20;;;;;;5075739;28;20136;-58
2023/03/29 09:20:55;;;;;;;2.33;2.03;;;26.00;27.20;;;;;;5074329;28;20055;-57
2023/03/29 09:24:00;;;;;;;4.25;1.90;;;26.00;27.40;;;;;;5073713;28;20052;-59
2023/03/29 09:26:48;;;;;;;2.67;1.85;;;26.10;27.00;;;;;;5073557;28;20051;-59
2023/03/29 09:29:36;;;;;;;3.33;1.88;;;26.10;27.00;;;;;;5073382;28;20526;-55
2023/03/29 09:32:14;;;;;;;5.20;1.90;;;26.10;27.40;;;;;;5077350;28;20048;-59
2023/03/29 09:34:53;;;;;;;3.67;1.33;;;26.20;27.00;;;;;;5074167;28;20058;-58
2023/03/29 09:37:32;;;;;;;2.25;1.63;;;26.20;27.00;;;;;;5073409;28;20060;-57
2023/03/29 09:40:01;;;;;;;2.03;1.58;;;26.20;26.80;;;;;;5069423;28;20048;-59
2023/03/29 09:42:31;;;;;;;5.22;1.77;;;26.20;26.80;;;;;;5075844;28;20081;-59
2023/03/29 09:45:07;;;;;;;2.08;1.30;;;26.20;26.70;;;;;;5071100;28;20059;-58
2023/03/29 09:47:52;;;;;;;2.80;1.40;;;26.20;26.40;;;;;;5072151;28;20048;-60
2023/03/29 09:50:36;;;;;;;2.45;1.27;;;26.20;26.70;;;;;;5074197;28;20044;-58
2023/03/29 09:53:04;;;;;;;2.47;1.45;;;26.30;26.90;;;;;;5074711;28;20052;-59
2023/03/29 09:55:35;;;;;;;2.35;1.35;;;26.30;27.00;;;;;;5074844;28;20139;-61
2023/03/29 09:58:13;;;;;;;2.13;1.48;;;26.30;27.10;;;;;;5077535;28;20501;-60
2023/03/29 10:00:40;;;;;;;2.55;1.50;;;26.40;27.10;;;;;;5074101;28;20048;-58
2023/03/29 10:03:08;;;;;;;0.98;0.90;;;26.40;26.90;;;;;;5074757;28;20166;-55
2023/03/29 10:05:37;;;;;;;1.55;1.33;;;26.40;26.90;;;;;;5078403;28;20052;-60
2023/03/29 10:08:19;;;;;;;1.65;1.38;;;26.40;26.80;;;;;;5076409;28;20135;-60
2023/03/29 10:10:47;;;;;;;1.80;1.38;;;26.40;26.50;;;;;;5077001;28;20131;-59
2023/03/29 10:13:30;;;;;;;2.95;1.40;;;26.40;26.50;;;;;;5078679;28;20044;-58
2023/03/29 10:16:08;;;;;;;1.15;1.10;;;26.40;26.40;;;;;;5078715;28;20143;-60
2023/03/29 10:18:42;;;;;;;1.48;1.33;;;26.40;26.30;;;;;;5081193;28;20051;-59
2023/03/29 10:21:14;;;;;;;3.13;1.58;;;26.40;26.30;;;;;;5082654;28;20071;-60
2023/03/29 10:23:42;;;;;;;2.90;1.20;;;26.40;26.20;;;;;;5080844;28;20143;-60
2023/03/29 10:26:28;;;;;;;2.85;1.25;;;26.40;26.20;;;;;;5077840;28;20434;-60
2023/03/29 10:28:59;;;;;;;1.40;1.13;;;26.40;26.20;;;;;;5079825;28;20044;-60
2023/03/29 10:31:31;;;;;;;1.45;0.90;;;26.40;26.20;;;;;;5083167;28;20510;-58
2023/03/29 10:34:05;;;;;;;1.58;1.10;;;26.40;26.10;;;;;;5080135;28;20052;-60
2023/03/29 10:36:33;;;;;;;1.58;1.10;;;26.40;26.10;;;;;;5080589;28;20075;-58
2023/03/29 10:39:03;;;;;;;5.47;1.85;;;26.40;26.10;;;;;;5081075;28;20045;-58
2023/03/29 10:41:33;;;;;;;2.90;1.48;;;26.30;26.00;;;;;;5078058;28;20052;-57
2023/03/29 10:44:01;;;;;;;2.83;1.10;;;26.30;26.20;;;;;;5078622;28;20783;-56
2023/03/29 10:46:40;;;;;;;5.13;1.17;;;26.40;26.30;;;;;;5079402;28;20045;-57
2023/03/29 10:49:17;;;;;;;3.08;1.23;;;26.40;26.30;;;;;;5079062;28;20201;-56
2023/03/29 10:51:46;;;;;;;2.03;0.75;;;26.40;26.40;;;;;;5076876;28;20518;-58
2023/03/29 10:54:19;;;;;;;3.90;0.88;;;26.40;26.30;;;;;;5077309;28;20139;-58
2023/03/29 10:56:56;;;;;;;6.03;1.40;;;26.40;26.40;;;;;;5078672;28;20052;-58
2023/03/29 11:00:00;;;;;;;2.60;1.27;;;26.40;26.30;;;;;;5077824;28;20052;-58
2023/03/29 11:03:07;;;;;;;2.75;1.10;;;26.40;26.10;;;;;;5076600;28;20052;-58
2023/03/29 11:05:48;;;;;;;3.83;1.00;;;26.40;26.20;;;;;;5075050;28;20105;-55
2023/03/29 11:08:56;;;;;;;2.97;1.00;;;26.40;26.10;;;;;;5077712;28;20056;-55
2023/03/29 11:11:43;;;;;;;4.03;1.17;;;26.50;26.10;;;;;;5077289;28;20694;-55
2023/03/29 11:14:29;;;;;;;2.88;1.00;;;26.40;26.00;;;;;;5078420;28;20113;-54
2023/03/29 11:17:20;;;;;;;2.08;1.00;;;26.40;26.00;;;;;;5077276;28;20425;-53
2023/03/29 11:20:15;;;;;;;3.35;1.20;;;26.50;26.10;;;;;;5077038;28;20044;-52
2023/03/29 11:23:16;;;;;;;1.88;1.08;;;26.50;26.10;;;;;;5076714;28;20056;-54
2023/03/29 11:26:03;;;;;;;1.95;1.02;;;26.50;26.00;;;;;;5075689;28;20055;-55
2023/03/29 11:28:59;;;;;;;1.55;1.08;;;26.50;26.10;;;;;;5079908;28;20058;-58
2023/03/29 11:31:51;;;;;;;8.50;1.02;;;26.50;26.00;;;;;;5079779;28;20556;-56
2023/03/29 11:34:51;;;;;;;1.58;0.90;;;26.50;26.10;;;;;;5075340;28;20416;-58
2023/03/29 11:37:24;;;;;;;;;;;26.50;26.10;;;;;;5077677;28;20139;-53
2023/03/29 11:40:22;;;;;;;3.03;0.90;;;26.50;25.90;;;;;;5077472;28;19932;-56
2023/03/29 11:42:54;;;;;;;0.80;0.75;;;26.50;26.00;;;;;;5080823;28;20143;-55
2023/03/29 11:45:38;;;;;;;0.98;0.88;;;26.50;26.00;;;;;;5077380;28;20058;-55
2023/03/29 11:48:14;;;;;;;2.80;0.88;;;26.50;25.90;;;;;;5077731;28;20059;-55
2023/03/29 11:51:15;;;;;;;1.20;0.90;;;26.50;25.90;;;;;;5079687;28;20056;-52
2023/03/29 11:53:54;;;;;;;1.70;1.00;;;26.50;25.90;;;;;;5077471;28;20494;-53
2023/03/29 11:56:29;;;;;;;2.90;1.00;;;26.50;25.90;;;;;;5078951;28;20320;-56
2023/03/29 11:59:03;;;;;;;0.90;0.90;;;26.50;25.90;;;;;;5078638;28;20056;-54
2023/03/29 12:01:39;;;;;;;1.48;0.80;;;26.50;25.80;;;;;;5078274;28;20056;-49
2023/03/29 12:04:16;;;;;;;3.33;1.30;;;26.50;25.80;;;;;;5072773;28;20136;-55
2023/03/29 12:06:56;;;;;;;4.60;0.77;;;26.50;25.80;;;;;;5060425;28;20066;-54
2023/03/29 12:09:38;;;;;;;1.70;0.80;;;26.50;25.70;;;;;;5074339;28;20052;-55
2023/03/29 12:12:14;;;;;;;2.17;1.08;;;26.50;25.70;;;;;;5075951;28;20150;-56
2023/03/29 12:14:55;;;;;;;2.53;1.25;;;26.50;25.70;;;;;;5073267;28;20445;-56
2023/03/29 12:17:33;;;;;;;1.73;0.70;;;26.50;25.80;;;;;;5070696;28;20083;-56
2023/03/29 12:20:10;;;;;;;0.70;0.70;;;26.60;25.80;;;;;;5073883;28;20055;-54
2023/03/29 12:22:37;;;;;;;3.83;1.08;;;26.60;26.00;;;;;;5075401;28;20048;-54
2023/03/29 12:25:11;;;;;;;1.25;0.65;;;26.60;26.20;;;;;;5075349;28;20448;-57
2023/03/29 12:28:01;;;;;;;4.13;1.02;;;26.60;26.20;;;;;;5078181;28;20138;-57
2023/03/29 12:30:45;;;;;;;2.95;0.90;;;26.60;26.30;;;;;;5072231;28;20048;-54
2023/03/29 12:33:42;;;;;;;4.30;0.85;;;26.70;26.10;;;;;;5076797;28;20063;-54
2023/03/29 12:36:50;;;;;;;1.33;0.90;;;26.60;26.00;;;;;;5077453;28;20547;-54
2023/03/29 12:39:19;;;;;;;1.13;0.95;;;26.60;26.00;;;;;;5077417;28;20074;-53
2023/03/29 12:41:52;;;;;;;1.80;0.77;;;26.60;26.00;;;;;;5077136;28;20036;-53
2023/03/29 12:44:23;;;;;;;1.85;0.52;;;26.60;25.90;;;;;;5076638;28;20670;-57
2023/03/29 12:46:56;;;;;;;1.30;0.75;;;26.60;26.10;;;;;;5071302;28;20059;-57
2023/03/29 12:49:33;;;;;;;2.45;0.75;;;26.60;26.20;;;;;;5074930;28;20048;-56
2023/03/29 12:52:13;;;;;;;1.85;0.93;;;26.60;26.30;;;;;;5075379;28;20056;-55
2023/03/29 12:54:51;;;;;;;0.77;0.70;;;26.60;26.30;;;;;;5074040;28;20052;-58
2023/03/29 12:57:38;;;;;;;0.77;0.68;;;26.60;26.20;;;;;;5076823;28;20528;-54
2023/03/29 13:00:26;;;;;;;1.30;0.75;;;26.60;26.30;;;;;;5075747;28;20486;-55
2023/03/29 13:03:18;;;;;;;1.42;0.85;;;26.60;26.30;;;;;;5073859;28;20056;-55
2023/03/29 13:05:47;;;;;;;1.85;0.80;;;26.60;26.40;;;;;;5075077;28;20138;-56
2023/03/29 13:08:25;;;;;;;4.68;1.08;;;26.60;26.40;;;;;;5076713;28;20055;-57
2023/03/29 13:10:54;;;;;;;1.23;0.70;;;26.60;26.20;;;;;;5073068;28;20068;-56
2023/03/29 13:13:29;;;;;;;1.33;0.80;;;26.60;26.00;;;;;;5084502;28;20054;-55
2023/03/29 13:16:15;;;;;;;3.17;0.90;;;26.60;26.00;;;;;;5073511;28;20304;-58
2023/03/29 13:19:12;;;;;;;1.65;0.90;;;26.60;26.10;;;;;;5075505;28;20138;-54
2023/03/29 13:22:15;;;;;;;1.88;1.13;;;26.60;26.00;;;;;;5073228;28;20052;-55